Time;durP1;ratioP1;P1;durP2;ratioP2;P2;SDS_P1;SDS_P2;PMS_P1;PMS_P2;Temp;Humidity;BMP_temperature;BMP_pressure;BME280_temperature;BME280_humidity;BME280_pressure;Samples;Min_cycle;Max_cycle;Signal;HPM_P1;HPM_P2
2021/06/08 00:00:19;;;;;;;30.60;24.90;;;17.30;1.00;;;;;;5057942;28;20021;-80
2021/06/08 00:02:45;;;;;;;28.65;25.55;;;17.40;1.00;;;;;;5057577;28;20261;-79
2021/06/08 00:05:11;;;;;;;28.50;25.50;;;17.40;1.00;;;;;;5058498;28;20025;-78
2021/06/08 00:07:37;;;;;;;28.75;25.50;;;17.30;1.00;;;;;;5058250;28;20764;-79
2021/06/08 00:10:04;;;;;;;38.78;26.77;;;17.30;1.00;;;;;;5059029;28;20029;-79
2021/06/08 00:12:29;;;;;;;26.45;23.83;;;17.30;1.00;;;;;;5059966;28;20461;-77
2021/06/08 00:14:55;;;;;;;27.08;24.13;;;17.30;1.00;;;;;;5056546;28;20020;-79
2021/06/08 00:17:20;;;;;;;29.33;24.08;;;17.40;1.00;;;;;;5057500;28;20378;-79
2021/06/08 00:19:46;;;;;;;28.83;25.75;;;17.40;1.00;;;;;;5058087;28;20036;-78
2021/06/08 00:22:12;;;;;;;28.02;24.73;;;17.40;1.00;;;;;;5057652;28;20029;-77
2021/06/08 00:24:37;;;;;;;26.40;23.65;;;17.40;1.00;;;;;;5057700;28;20025;-77
2021/06/08 00:27:03;;;;;;;28.83;25.70;;;17.40;1.00;;;;;;5061932;28;20528;-77
2021/06/08 00:29:29;;;;;;;27.92;24.90;;;17.40;1.00;;;;;;5064000;28;20029;-78
2021/06/08 00:31:54;;;;;;;28.60;25.60;;;17.40;1.00;;;;;;5063425;28;20027;-79
2021/06/08 00:34:20;;;;;;;28.42;25.40;;;17.40;1.00;;;;;;5062856;28;20025;-78
2021/06/08 00:36:46;;;;;;;27.60;24.80;;;17.30;1.00;;;;;;5062672;28;20017;-77
2021/06/08 00:39:11;;;;;;;30.35;26.23;;;17.40;1.00;;;;;;5062992;28;20556;-78
2021/06/08 00:41:42;;;;;;;28.83;25.75;;;17.40;1.00;;;;;;5072892;28;20080;-75
2021/06/08 00:44:13;;;;;;;27.77;24.75;;;17.40;1.00;;;;;;5078697;28;20021;-76
2021/06/08 00:46:40;;;;;;;27.75;25.02;;;17.30;1.00;;;;;;5076768;28;20027;-76
2021/06/08 00:49:05;;;;;;;28.60;24.98;;;17.40;1.00;;;;;;5076664;28;20037;-77
2021/06/08 00:51:31;;;;;;;25.52;22.73;;;17.40;1.00;;;;;;5064125;28;20027;-77
2021/06/08 00:53:59;;;;;;;27.55;24.83;;;17.50;1.00;;;;;;5073668;28;20029;-76
2021/06/08 00:56:24;;;;;;;27.52;23.90;;;17.50;1.00;;;;;;5078606;28;20013;-74
2021/06/08 00:58:50;;;;;;;30.45;24.75;;;17.50;1.00;;;;;;5079254;28;20067;-75
2021/06/08 01:01:16;;;;;;;27.73;24.75;;;17.50;1.00;;;;;;5068648;28;20043;-77
2021/06/08 01:03:41;;;;;;;28.42;25.42;;;17.50;1.00;;;;;;5069007;28;20021;-78
2021/06/08 01:06:07;;;;;;;29.05;25.40;;;17.40;1.00;;;;;;5060043;28;20025;-79
2021/06/08 01:08:33;;;;;;;29.42;26.13;;;17.30;1.00;;;;;;5059512;28;20029;-79
2021/06/08 01:10:58;;;;;;;27.60;24.50;;;17.30;1.00;;;;;;5059681;28;20025;-77
2021/06/08 01:13:26;;;;;;;28.05;25.05;;;17.30;1.00;;;;;;5064100;28;20063;-76
2021/06/08 01:15:52;;;;;;;28.83;25.63;;;17.30;1.00;;;;;;5063160;28;20096;-76
2021/06/08 01:18:18;;;;;;;28.10;25.05;;;17.30;1.00;;;;;;5063692;28;20036;-76
2021/06/08 01:20:44;;;;;;;27.75;24.60;;;17.30;1.00;;;;;;5063293;28;20086;-76
2021/06/08 01:23:09;;;;;;;27.42;24.55;;;17.30;1.00;;;;;;5069088;28;20381;-76
2021/06/08 01:25:35;;;;;;;28.90;25.92;;;17.20;1.00;;;;;;5063879;28;20035;-77
2021/06/08 01:28:01;;;;;;;30.50;26.55;;;17.30;1.00;;;;;;5063682;28;20101;-77
2021/06/08 01:30:29;;;;;;;31.95;26.88;;;17.20;1.00;;;;;;5063477;28;20078;-76
2021/06/08 01:32:56;;;;;;;28.35;25.27;;;17.20;1.00;;;;;;5064581;28;20025;-77
2021/06/08 01:35:23;;;;;;;29.17;25.88;;;17.20;1.00;;;;;;5065137;28;20028;-76
2021/06/08 01:37:49;;;;;;;30.15;25.95;;;17.20;1.00;;;;;;5064088;28;20024;-76
2021/06/08 01:40:18;;;;;;;29.58;26.35;;;17.20;1.00;;;;;;5064239;28;20052;-75
2021/06/08 01:42:44;;;;;;;31.35;26.30;;;17.20;1.00;;;;;;5061977;28;20024;-76
2021/06/08 01:45:15;;;;;;;35.40;28.90;;;17.20;1.00;;;;;;5065963;28;20521;-76
2021/06/08 01:47:40;;;;;;;33.08;27.05;;;17.10;1.00;;;;;;5062893;28;20029;-79
2021/06/08 01:50:06;;;;;;;29.02;25.63;;;17.10;1.00;;;;;;5059251;28;20139;-78
2021/06/08 01:53:00;;;;;;;30.90;26.77;;;17.10;1.00;;;;;;5058549;28;20021;-78
2021/06/08 01:55:30;;;;;;;31.98;27.35;;;17.00;1.00;;;;;;5062198;28;20107;-76
2021/06/08 01:58:11;;;;;;;30.90;27.48;;;17.00;1.00;;;;;;5063361;28;20507;-78
2021/06/08 02:00:46;;;;;;;35.65;28.75;;;17.00;1.00;;;;;;5063468;28;20081;-77
2021/06/08 02:03:20;;;;;;;33.92;28.42;;;17.00;1.00;;;;;;5070201;28;20415;-77
2021/06/08 02:06:08;;;;;;;32.05;27.83;;;17.00;1.00;;;;;;5068251;28;20048;-78
2021/06/08 02:08:50;;;;;;;33.05;27.88;;;17.00;1.00;;;;;;5064220;28;20040;-78
2021/06/08 02:11:24;;;;;;;31.77;28.00;;;17.00;1.00;;;;;;5063696;28;20037;-79
2021/06/08 02:14:22;;;;;;;33.13;27.70;;;17.00;1.00;;;;;;5062046;28;20075;-78
2021/06/08 02:17:32;;;;;;;33.65;27.15;;;16.90;1.00;;;;;;5004780;28;20030;-78
2021/06/08 02:20:04;;;;;;;32.22;27.05;;;17.00;1.00;;;;;;5015961;28;20448;-79
2021/06/08 02:22:31;;;;;;;31.98;27.70;;;17.00;1.00;;;;;;5051580;28;20037;-79
2021/06/08 02:24:58;;;;;;;32.03;27.63;;;17.10;1.00;;;;;;5060094;28;20028;-80
2021/06/08 02:27:26;;;;;;;34.78;27.95;;;17.10;1.00;;;;;;5056504;28;20017;-80
2021/06/08 02:29:54;;;;;;;31.15;25.60;;;17.10;1.00;;;;;;5075389;28;20086;-78
2021/06/08 02:32:21;;;;;;;31.80;27.27;;;17.10;1.00;;;;;;5057608;28;20418;-78
2021/06/08 02:34:47;;;;;;;29.75;26.55;;;17.10;1.00;;;;;;5057483;28;20032;-79
2021/06/08 02:37:14;;;;;;;31.42;27.52;;;17.10;1.00;;;;;;5056469;28;20035;-78
2021/06/08 02:39:41;;;;;;;35.50;27.73;;;17.10;1.00;;;;;;5056977;28;20029;-78
2021/06/08 02:42:12;;;;;;;30.48;26.08;;;17.10;1.00;;;;;;5052746;28;20025;-78
2021/06/08 02:44:41;;;;;;;31.02;25.65;;;17.20;1.00;;;;;;5059095;28;20021;-78
2021/06/08 02:47:07;;;;;;;29.92;26.02;;;17.20;1.00;;;;;;5062282;28;20420;-79
2021/06/08 02:49:34;;;;;;;28.20;25.23;;;17.20;1.00;;;;;;5056377;28;20480;-79
2021/06/08 02:52:01;;;;;;;28.85;25.85;;;17.20;1.00;;;;;;5057644;28;20036;-79
2021/06/08 02:54:27;;;;;;;29.90;26.30;;;17.20;1.00;;;;;;5058025;28;20017;-80
2021/06/08 02:56:55;;;;;;;29.83;26.48;;;17.20;1.00;;;;;;5070169;28;20321;-79
2021/06/08 02:59:21;;;;;;;28.63;25.52;;;17.20;1.00;;;;;;5077797;28;20029;-79
2021/06/08 03:01:54;;;;;;;28.45;25.45;;;17.20;1.00;;;;;;5079569;28;20052;-77
2021/06/08 03:04:22;;;;;;;31.60;26.83;;;17.20;1.00;;;;;;5077428;28;20017;-79
2021/06/08 03:06:54;;;;;;;30.13;26.80;;;17.30;1.00;;;;;;5076996;28;20016;-76
2021/06/08 03:10:06;;;;;;;29.42;26.35;;;17.20;1.00;;;;;;5080528;28;20070;-76
2021/06/08 03:12:38;;;;;;;33.53;26.17;;;17.20;1.00;;;;;;5081800;28;20150;-76
2021/06/08 03:15:06;;;;;;;33.40;27.50;;;17.20;1.00;;;;;;5086111;28;20039;-77
2021/06/08 03:17:34;;;;;;;33.83;29.33;;;17.10;1.00;;;;;;5085191;28;20036;-77
2021/06/08 03:20:12;;;;;;;32.00;27.83;;;17.10;1.00;;;;;;5085054;28;20032;-76
2021/06/08 03:22:41;;;;;;;37.10;29.05;;;17.10;1.00;;;;;;5083533;28;20104;-79
2021/06/08 03:25:09;;;;;;;30.95;27.38;;;17.10;1.00;;;;;;5080207;28;20063;-78
2021/06/08 03:27:35;;;;;;;34.88;29.10;;;17.00;1.00;;;;;;5083087;28;20051;-76
2021/06/08 03:30:01;;;;;;;35.10;28.45;;;17.00;1.00;;;;;;5083019;28;20021;-79
2021/06/08 03:32:27;;;;;;;33.33;28.50;;;17.00;1.00;;;;;;5087400;28;20016;-76
2021/06/08 03:34:54;;;;;;;36.10;29.13;;;17.00;1.00;;;;;;5085017;28;20039;-78
2021/06/08 03:37:21;;;;;;;34.15;28.85;;;17.00;1.00;;;;;;5080856;28;20028;-79
2021/06/08 03:39:48;;;;;;;36.40;29.55;;;16.90;1.00;;;;;;5085390;28;20020;-79
2021/06/08 03:42:15;;;;;;;34.33;28.92;;;16.90;1.00;;;;;;5063225;28;20021;-79
2021/06/08 03:44:40;;;;;;;32.85;29.02;;;16.90;1.00;;;;;;5062389;28;20040;-77
2021/06/08 03:47:06;;;;;;;38.30;29.33;;;16.90;1.00;;;;;;5063327;28;20021;-78
2021/06/08 03:49:33;;;;;;;36.28;30.67;;;16.90;1.00;;;;;;5059168;28;20029;-79
2021/06/08 03:51:59;;;;;;;35.25;30.23;;;16.90;1.00;;;;;;5044226;28;20532;-78
2021/06/08 03:54:25;;;;;;;33.85;29.55;;;16.90;1.00;;;;;;5059541;28;20473;-78
2021/06/08 03:56:54;;;;;;;34.25;29.67;;;16.90;1.00;;;;;;5054257;28;20108;-80
2021/06/08 03:59:24;;;;;;;34.40;29.42;;;16.90;1.00;;;;;;5043143;28;20104;-78
2021/06/08 04:01:52;;;;;;;33.75;29.25;;;17.00;1.00;;;;;;5042984;28;20040;-78
2021/06/08 04:04:17;;;;;;;38.88;29.77;;;16.90;1.00;;;;;;5041506;28;20089;-79
2021/06/08 04:06:45;;;;;;;36.75;30.55;;;16.90;1.00;;;;;;5042743;28;20187;-79
2021/06/08 04:09:11;;;;;;;42.03;30.02;;;16.90;1.00;;;;;;5050582;28;20014;-75
2021/06/08 04:11:37;;;;;;;44.67;31.27;;;16.90;1.00;;;;;;5059514;28;20025;-79
2021/06/08 04:14:04;;;;;;;32.85;29.23;;;16.90;1.00;;;;;;5043807;28;20083;-78
2021/06/08 04:16:30;;;;;;;36.38;29.65;;;17.00;1.00;;;;;;5054271;28;20076;-77
2021/06/08 04:18:57;;;;;;;36.38;30.20;;;17.00;1.00;;;;;;5042989;28;20027;-78
2021/06/08 04:21:24;;;;;;;33.17;28.88;;;17.00;1.00;;;;;;5039886;28;20122;-78
2021/06/08 04:24:01;;;;;;;31.08;27.52;;;17.00;1.00;;;;;;5039802;28;20094;-79
2021/06/08 04:26:27;;;;;;;33.22;28.40;;;17.10;1.00;;;;;;5039947;28;20022;-79
2021/06/08 04:28:54;;;;;;;32.10;28.40;;;17.10;1.00;;;;;;5040135;28;20538;-79
2021/06/08 04:31:23;;;;;;;31.38;27.65;;;17.10;1.00;;;;;;5054854;28;20022;-77
2021/06/08 04:33:49;;;;;;;33.22;27.45;;;17.10;1.00;;;;;;5040111;28;20025;-78
2021/06/08 04:36:16;;;;;;;29.48;26.42;;;17.20;1.00;;;;;;5042613;28;20048;-75
2021/06/08 04:38:42;;;;;;;30.25;26.67;;;17.20;1.00;;;;;;5046606;28;20026;-78
2021/06/08 04:41:08;;;;;;;29.80;26.63;;;17.30;1.00;;;;;;5064867;28;20036;-77
2021/06/08 04:43:34;;;;;;;31.08;27.85;;;17.30;1.00;;;;;;5071622;28;20021;-75
2021/06/08 04:46:05;;;;;;;29.25;24.98;;;17.30;1.00;;;;;;5078406;28;20013;-77
2021/06/08 04:48:32;;;;;;;30.83;26.77;;;17.30;1.00;;;;;;5075967;28;20040;-78
2021/06/08 04:50:58;;;;;;;29.75;26.55;;;17.30;1.00;;;;;;5064125;28;20025;-79
2021/06/08 04:53:24;;;;;;;29.25;25.10;;;17.30;1.00;;;;;;5062967;28;20089;-79
2021/06/08 04:55:51;;;;;;;31.83;26.80;;;17.30;1.00;;;;;;5077771;28;20093;-79
2021/06/08 04:58:17;;;;;;;30.63;26.15;;;17.30;1.00;;;;;;5064033;28;20072;-77
2021/06/08 05:00:49;;;;;;;29.40;25.83;;;17.40;1.00;;;;;;5062109;28;20033;-78
2021/06/08 05:03:18;;;;;;;27.35;24.48;;;17.40;1.00;;;;;;5062394;28;20123;-79
2021/06/08 05:05:49;;;;;;;25.27;22.77;;;17.40;1.00;;;;;;5063827;28;20072;-79
2021/06/08 05:08:21;;;;;;;26.55;23.80;;;17.50;1.00;;;;;;5063729;28;20028;-77
2021/06/08 05:10:54;;;;;;;27.70;24.25;;;17.50;1.00;;;;;;5066440;28;20074;-77
2021/06/08 05:13:21;;;;;;;25.52;22.92;;;17.60;1.00;;;;;;5061728;28;20044;-78
2021/06/08 05:15:51;;;;;;;26.65;23.95;;;17.60;1.00;;;;;;5060381;28;20373;-79
2021/06/08 05:18:18;;;;;;;29.15;24.15;;;17.50;1.00;;;;;;5063974;28;20075;-78
2021/06/08 05:20:45;;;;;;;26.10;23.08;;;17.60;1.00;;;;;;5061650;28;20041;-79
2021/06/08 05:23:14;;;;;;;25.50;22.80;;;17.80;1.00;;;;;;5062188;28;20027;-79
2021/06/08 05:25:42;;;;;;;27.30;23.75;;;17.90;1.00;;;;;;5060096;28;20025;-79
2021/06/08 05:28:09;;;;;;;26.02;23.25;;;17.70;1.00;;;;;;5064949;28;20017;-77
2021/06/08 05:30:34;;;;;;;27.20;24.30;;;17.60;1.00;;;;;;5065930;28;20026;-76
2021/06/08 05:33:00;;;;;;;27.30;24.65;;;17.60;1.00;;;;;;5062812;28;20076;-79
2021/06/08 05:35:28;;;;;;;27.40;24.63;;;17.60;1.00;;;;;;5061078;28;20024;-78
2021/06/08 05:38:01;;;;;;;26.52;23.98;;;17.50;1.00;;;;;;5061609;28;20033;-79
2021/06/08 05:40:26;;;;;;;27.10;23.50;;;17.50;1.00;;;;;;5056977;28;20062;-79
2021/06/08 05:42:52;;;;;;;28.58;23.05;;;17.60;1.00;;;;;;5058072;28;20044;-78
2021/06/08 05:45:17;;;;;;;30.55;24.38;;;17.60;1.00;;;;;;5057613;28;20025;-78
2021/06/08 05:47:43;;;;;;;26.85;24.00;;;17.60;1.00;;;;;;5059559;28;20397;-78
2021/06/08 05:50:09;;;;;;;25.40;22.90;;;17.60;1.00;;;;;;5072922;28;20033;-79
2021/06/08 05:52:36;;;;;;;26.38;23.52;;;17.60;1.00;;;;;;5063000;28;20481;-76
2021/06/08 05:55:03;;;;;;;25.60;22.90;;;17.70;1.00;;;;;;5072376;28;20013;-76
2021/06/08 05:57:29;;;;;;;27.27;23.15;;;17.60;1.00;;;;;;5078864;28;20008;-76
2021/06/08 05:59:55;;;;;;;28.63;23.80;;;17.50;1.00;;;;;;5076890;28;20109;-76
2021/06/08 06:02:21;;;;;;;28.33;25.35;;;17.60;1.00;;;;;;5066281;28;20037;-77
2021/06/08 06:04:47;;;;;;;28.75;25.75;;;17.60;1.00;;;;;;5054927;28;20056;-77
2021/06/08 06:07:13;;;;;;;25.77;23.13;;;17.70;1.00;;;;;;5055156;28;20033;-79
2021/06/08 06:09:39;;;;;;;31.75;23.48;;;17.70;1.00;;;;;;5058455;28;20460;-79
2021/06/08 06:12:06;;;;;;;24.52;22.05;;;17.90;1.00;;;;;;5057438;28;20017;-81
2021/06/08 06:14:35;;;;;;;23.35;20.95;;;17.90;1.00;;;;;;5061690;28;20025;-77
2021/06/08 06:17:01;;;;;;;23.52;21.08;;;17.90;1.00;;;;;;5057800;28;20495;-78
2021/06/08 06:19:27;;;;;;;22.23;20.02;;;17.90;1.00;;;;;;5058116;28;20489;-80
2021/06/08 06:21:55;;;;;;;24.33;21.92;;;17.90;1.00;;;;;;5058690;28;20040;-80
2021/06/08 06:24:21;;;;;;;23.83;21.30;;;17.90;1.00;;;;;;5058318;28;20142;-78
2021/06/08 06:26:53;;;;;;;23.73;21.23;;;17.80;1.00;;;;;;5057032;28;20029;-79
2021/06/08 06:29:19;;;;;;;23.33;20.95;;;17.80;1.00;;;;;;5057003;28;20032;-80
2021/06/08 06:31:47;;;;;;;23.88;21.50;;;17.80;1.00;;;;;;5059581;28;20013;-76
2021/06/08 06:34:14;;;;;;;25.00;22.13;;;17.90;1.00;;;;;;5061336;28;20025;-80
2021/06/08 06:36:42;;;;;;;30.27;24.85;;;17.90;1.00;;;;;;5062732;28;20025;-78
2021/06/08 06:39:24;;;;;;;25.02;22.50;;;17.90;1.00;;;;;;5058480;28;20104;-81
2021/06/08 06:41:52;;;;;;;23.92;21.48;;;17.90;1.00;;;;;;5059220;28;20028;-82
2021/06/08 06:44:21;;;;;;;25.42;22.63;;;17.90;1.00;;;;;;5059373;28;20025;-80
2021/06/08 06:46:49;;;;;;;25.70;23.00;;;17.90;1.00;;;;;;5057068;28;20128;-79
2021/06/08 06:49:15;;;;;;;25.33;22.73;;;18.00;1.00;;;;;;5055712;28;20028;-76
2021/06/08 06:51:46;;;;;;;25.75;22.70;;;18.00;1.00;;;;;;5054103;28;20048;-76
2021/06/08 06:54:13;;;;;;;26.48;23.73;;;18.00;1.00;;;;;;5054591;28;20036;-78
2021/06/08 06:56:39;;;;;;;26.17;23.48;;;18.10;1.00;;;;;;5052830;28;20514;-77
2021/06/08 06:59:06;;;;;;;25.58;22.95;;;18.10;1.00;;;;;;5055452;28;20022;-79
2021/06/08 07:01:32;;;;;;;26.40;22.67;;;18.10;1.00;;;;;;5056822;28;20521;-77
2021/06/08 07:04:00;;;;;;;27.00;22.60;;;18.20;1.00;;;;;;5058388;28;20037;-78
2021/06/08 07:06:28;;;;;;;29.33;23.38;;;18.30;1.00;;;;;;5063015;28;20033;-77
2021/06/08 07:08:56;;;;;;;25.38;22.70;;;18.40;1.00;;;;;;5064854;28;20029;-77
2021/06/08 07:11:23;;;;;;;26.95;22.73;;;18.50;1.00;;;;;;5062335;28;20025;-77
2021/06/08 07:13:50;;;;;;;25.38;22.67;;;18.50;1.00;;;;;;5060472;28;20021;-76
2021/06/08 07:16:17;;;;;;;25.70;23.10;;;18.70;1.00;;;;;;5060445;28;20025;-77
2021/06/08 07:18:47;;;;;;;27.48;22.25;;;18.80;1.00;;;;;;5059344;28;20033;-77
2021/06/08 07:21:15;;;;;;;24.25;21.88;;;18.90;1.00;;;;;;5063185;28;20032;-77
2021/06/08 07:23:43;;;;;;;24.45;22.05;;;18.90;1.00;;;;;;5063753;28;20032;-78
2021/06/08 07:26:11;;;;;;;24.35;21.95;;;18.80;1.00;;;;;;5077379;28;20100;-74
2021/06/08 07:28:36;;;;;;;24.50;21.88;;;18.90;1.00;;;;;;5062959;28;20408;-76
2021/06/08 07:31:03;;;;;;;25.10;21.52;;;18.80;1.00;;;;;;5061787;28;20021;-77
2021/06/08 07:33:31;;;;;;;29.17;22.02;;;18.90;1.00;;;;;;5061157;28;20028;-77
2021/06/08 07:36:16;;;;;;;23.02;20.80;;;19.40;1.00;;;;;;5057650;28;20139;-76
2021/06/08 07:39:01;;;;;;;25.98;22.00;;;19.50;1.00;;;;;;5058216;28;20033;-75
2021/06/08 07:41:37;;;;;;;30.90;21.58;;;19.40;1.00;;;;;;5057346;28;20029;-76
2021/06/08 07:44:06;;;;;;;23.10;20.75;;;19.30;1.00;;;;;;5059077;28;20013;-76
2021/06/08 07:46:36;;;;;;;26.02;21.98;;;19.60;1.00;;;;;;5058771;28;20115;-77
2021/06/08 07:49:04;;;;;;;25.55;23.05;;;19.30;1.00;;;;;;5056268;28;20043;-77
2021/06/08 07:51:30;;;;;;;24.45;21.90;;;19.10;1.00;;;;;;5057700;28;20536;-77
2021/06/08 07:53:56;;;;;;;26.40;23.80;;;19.30;1.00;;;;;;5056655;28;20017;-77
2021/06/08 07:56:22;;;;;;;27.40;24.13;;;19.10;1.00;;;;;;5060578;28;20024;-76
2021/06/08 07:58:49;;;;;;;26.35;23.38;;;19.00;1.00;;;;;;5060113;28;20021;-75
2021/06/08 08:01:15;;;;;;;27.70;24.75;;;19.00;1.00;;;;;;5063907;28;20036;-76
2021/06/08 08:03:41;;;;;;;27.13;24.27;;;19.00;1.00;;;;;;5062652;28;20040;-76
2021/06/08 08:06:12;;;;;;;27.80;25.02;;;19.20;1.00;;;;;;5059656;28;20029;-76
2021/06/08 08:08:38;;;;;;;27.60;24.70;;;19.10;1.00;;;;;;5058614;28;20032;-77
2021/06/08 08:11:16;;;;;;;28.50;24.73;;;19.10;1.00;;;;;;5058309;28;20452;-78
2021/06/08 08:13:45;;;;;;;27.92;24.15;;;19.30;1.00;;;;;;5059990;28;20021;-76
2021/06/08 08:16:11;;;;;;;28.85;25.80;;;19.40;1.00;;;;;;5059741;28;20029;-77
2021/06/08 08:18:39;;;;;;;27.48;24.67;;;19.20;1.00;;;;;;5058948;28;20037;-75
2021/06/08 08:21:08;;;;;;;25.77;23.13;;;19.00;1.00;;;;;;5064336;28;20163;-78
2021/06/08 08:23:35;;;;;;;28.20;25.23;;;18.80;1.00;;;;;;5065614;28;20053;-75
2021/06/08 08:26:04;;;;;;;29.63;24.92;;;19.00;1.00;;;;;;5062179;28;20017;-76
2021/06/08 08:28:31;;;;;;;32.47;25.13;;;19.20;1.00;;;;;;5062967;28;20029;-77
2021/06/08 08:30:59;;;;;;;28.00;25.00;;;19.10;1.00;;;;;;5061445;28;20027;-76
2021/06/08 08:33:27;;;;;;;31.38;26.02;;;19.20;1.00;;;;;;5061726;28;20419;-76
2021/06/08 08:35:53;;;;;;;27.58;24.80;;;19.50;1.00;;;;;;5055886;28;20025;-77
2021/06/08 08:38:19;;;;;;;25.85;23.25;;;19.60;1.00;;;;;;5057120;28;20075;-76
2021/06/08 08:40:46;;;;;;;26.02;23.33;;;19.60;1.00;;;;;;5064798;28;20035;-75
2021/06/08 08:43:12;;;;;;;27.08;24.23;;;19.70;1.00;;;;;;5075195;28;20036;-75
2021/06/08 08:45:38;;;;;;;26.70;24.00;;;19.70;1.00;;;;;;5074783;28;20076;-76
2021/06/08 08:48:04;;;;;;;27.92;25.02;;;19.70;1.00;;;;;;5067230;28;20037;-77
2021/06/08 08:50:29;;;;;;;27.65;24.77;;;19.60;1.00;;;;;;5061185;28;20021;-76
2021/06/08 08:53:02;;;;;;;25.30;22.60;;;19.70;1.00;;;;;;5061053;28;20017;-76
2021/06/08 08:55:30;;;;;;;25.60;23.10;;;19.60;1.00;;;;;;5063099;28;20485;-76
2021/06/08 08:57:58;;;;;;;27.23;24.48;;;19.50;1.00;;;;;;5063547;28;20024;-78
2021/06/08 09:00:26;;;;;;;26.50;23.98;;;19.50;1.00;;;;;;5074435;28;20021;-77
2021/06/08 09:02:56;;;;;;;26.00;23.00;;;19.90;1.00;;;;;;5060899;28;20036;-77
2021/06/08 09:05:22;;;;;;;24.55;22.15;;;20.00;1.00;;;;;;5040874;28;20033;-79
2021/06/08 09:07:53;;;;;;;24.92;22.42;;;20.20;1.00;;;;;;5055837;28;20554;-77
2021/06/08 09:10:21;;;;;;;26.00;23.20;;;20.40;1.00;;;;;;5039513;28;20025;-77
2021/06/08 09:12:47;;;;;;;25.08;22.48;;;20.30;1.00;;;;;;5036241;28;20029;-78
2021/06/08 09:15:13;;;;;;;25.08;22.55;;;19.90;1.00;;;;;;5042040;28;20055;-77
2021/06/08 09:17:40;;;;;;;25.83;23.33;;;19.80;1.00;;;;;;5041293;28;20089;-77
2021/06/08 09:20:10;;;;;;;26.17;23.58;;;19.90;1.00;;;;;;5040851;28;20060;-76
2021/06/08 09:23:02;;;;;;;26.83;23.70;;;19.80;1.00;;;;;;5042541;28;20022;-78
2021/06/08 09:25:33;;;;;;;26.92;24.35;;;19.80;1.00;;;;;;5040627;28;20037;-77
2021/06/08 09:28:25;;;;;;;27.67;24.45;;;19.90;1.00;;;;;;5041769;28;20045;-77
2021/06/08 09:30:56;;;;;;;26.55;23.77;;;20.00;1.00;;;;;;5046725;28;20017;-77
2021/06/08 09:33:57;;;;;;;26.20;23.70;;;20.10;1.00;;;;;;5056501;28;20028;-78
2021/06/08 09:36:25;;;;;;;27.30;24.60;;;20.60;99.90;;;;;;5053081;28;20065;-77
2021/06/08 09:38:59;;;;;;;28.83;23.25;;;21.10;99.90;;;;;;5060047;28;20016;-76
2021/06/08 09:41:30;;;;;;;25.83;23.08;;;21.10;99.90;;;;;;5059457;28;20041;-75
2021/06/08 09:44:14;;;;;;;26.10;23.60;;;21.20;99.90;;;;;;5073304;28;20443;-77
2021/06/08 09:46:47;;;;;;;26.05;23.45;;;21.40;99.90;;;;;;5039693;28;20068;-77
2021/06/08 09:49:15;;;;;;;24.55;22.00;;;21.20;99.90;;;;;;5058511;28;20642;-77
2021/06/08 09:51:53;;;;;;;24.27;21.90;;;21.30;99.90;;;;;;5056965;28;20021;-77
2021/06/08 09:54:34;;;;;;;25.27;22.73;;;21.70;99.90;;;;;;5061442;28;20024;-78
2021/06/08 09:57:19;;;;;;;25.35;22.95;;;21.80;99.90;;;;;;5058093;28;20025;-76
2021/06/08 09:59:50;;;;;;;25.38;22.88;;;22.40;81.30;;;;;;5060267;28;20052;-77
2021/06/08 10:02:32;;;;;;;25.33;22.92;;;22.90;99.90;;;;;;5062858;28;20060;-76
2021/06/08 10:05:33;;;;;;;24.50;21.90;;;22.20;99.90;;;;;;5061318;28;20021;-77
2021/06/08 10:07:58;;;;;;;;;;;23.10;99.90;;;;;;5016896;28;20037;-77
2021/06/08 10:10:40;;;;;;;23.52;21.33;;;23.50;99.90;;;;;;5048197;28;19905;-77
2021/06/08 10:13:08;;;;;;;22.08;20.00;;;23.90;1.00;;;;;;5057525;28;20021;-75
2021/06/08 10:15:50;;;;;;;23.05;20.95;;;23.60;1.00;;;;;;5057097;28;20032;-76
2021/06/08 10:18:17;;;;;;;23.08;21.02;;;22.90;56.70;;;;;;5056899;28;20025;-76
2021/06/08 10:20:51;;;;;;;22.20;20.20;;;22.50;99.90;;;;;;5128660;22;20168;-76
2021/06/08 10:23:37;;;;;;;26.38;22.80;;;22.40;99.90;;;;;;5079824;28;20035;-74
2021/06/08 10:26:11;;;;;;;22.52;20.50;;;22.50;99.90;;;;;;5094231;28;20051;-75
2021/06/08 10:28:37;;;;;;;21.77;19.58;;;22.40;99.90;;;;;;5079293;28;20472;-75
2021/06/08 10:31:04;;;;;;;20.70;18.83;;;22.50;99.90;;;;;;5076371;28;20024;-73
2021/06/08 10:33:30;;;;;;;21.42;19.33;;;22.70;99.90;;;;;;5093200;28;20026;-73
2021/06/08 10:35:56;;;;;;;22.55;20.30;;;23.40;1.00;;;;;;5088818;28;20055;-74
2021/06/08 10:38:23;;;;;;;22.70;20.50;;;23.30;99.90;;;;;;5076283;28;20024;-75
2021/06/08 10:40:53;;;;;;;21.08;19.15;;;22.70;1.00;;;;;;5077833;28;20025;-76
2021/06/08 10:43:23;;;;;;;21.23;19.33;;;22.70;1.00;;;;;;5077012;28;20024;-76
2021/06/08 10:45:55;;;;;;;21.87;19.77;;;22.70;41.20;;;;;;5075325;28;20021;-76
2021/06/08 10:48:28;;;;;;;20.83;18.80;;;22.70;1.00;;;;;;5076920;28;20286;-76
2021/06/08 10:51:20;;;;;;;23.05;21.05;;;22.90;1.00;;;;;;5073293;28;20017;-77
2021/06/08 10:53:57;;;;;;;21.92;19.92;;;22.70;1.00;;;;;;5068871;28;20040;-77
2021/06/08 10:56:28;;;;;;;21.60;19.50;;;22.90;99.90;;;;;;5058237;28;20028;-76
2021/06/08 10:58:59;;;;;;;20.88;18.75;;;22.90;99.90;;;;;;5072266;28;20063;-77
2021/06/08 11:01:31;;;;;;;20.80;18.83;;;23.10;99.90;;;;;;5082250;28;20034;-76
2021/06/08 11:03:58;;;;;;;21.50;19.58;;;23.20;99.90;;;;;;5087407;28;20028;-77
2021/06/08 11:06:50;;;;;;;20.50;18.70;;;23.30;99.90;;;;;;5091521;28;20078;-76
2021/06/08 11:09:34;;;;;;;21.08;19.13;;;23.00;99.90;;;;;;5091008;28;20028;-77
2021/06/08 11:12:02;;;;;;;20.02;18.30;;;23.10;99.90;;;;;;5080985;28;20056;-75
2021/06/08 11:17:30;;;;;;;19.98;18.27;;;23.60;99.90;;;;;;5077303;28;20400;-76
2021/06/08 11:20:06;;;;;;;22.15;20.08;;;23.70;99.90;;;;;;5073903;28;20067;-77
2021/06/08 11:22:32;;;;;;;22.15;20.00;;;23.30;99.90;;;;;;5075638;28;20104;-76
2021/06/08 11:24:58;;;;;;;21.20;19.35;;;23.00;99.90;;;;;;5074251;28;20052;-76
2021/06/08 11:27:56;;;;;;;20.75;18.75;;;23.00;99.90;;;;;;5072682;28;20170;-75
2021/06/08 11:30:32;;;;;;;21.95;19.60;;;23.70;99.90;;;;;;5072173;28;20017;-76
2021/06/08 11:33:01;;;;;;;21.90;19.85;;;23.90;99.90;;;;;;5073991;28;20017;-75
2021/06/08 11:35:35;;;;;;;21.05;19.15;;;24.10;8.80;;;;;;5073195;28;20074;-76
2021/06/08 11:38:10;;;;;;;21.52;19.23;;;24.20;1.00;;;;;;5072310;28;20055;-76
2021/06/08 11:40:37;;;;;;;21.02;19.10;;;23.40;1.00;;;;;;5054669;28;20032;-76
2021/06/08 11:43:09;;;;;;;21.85;19.77;;;23.40;99.90;;;;;;5071450;28;20036;-75
2021/06/08 11:45:39;;;;;;;21.90;19.77;;;24.20;1.00;;;;;;5072119;28;20016;-76
2021/06/08 11:48:25;;;;;;;19.42;17.67;;;24.20;99.90;;;;;;5076779;28;20037;-75
2021/06/08 11:50:50;;;;;;;21.35;19.35;;;24.60;99.90;;;;;;5072745;28;20020;-76
2021/06/08 11:53:16;;;;;;;21.40;19.20;;;24.40;99.90;;;;;;5074889;28;20028;-75
2021/06/08 11:55:45;;;;;;;21.75;19.52;;;24.90;93.60;;;;;;5076454;28;20499;-75
2021/06/08 11:58:35;;;;;;;20.73;19.00;;;25.00;23.40;;;;;;5072459;28;20054;-76
2021/06/08 12:01:02;;;;;;;21.60;19.67;;;24.80;1.00;;;;;;5054836;28;20392;-76
2021/06/08 12:03:32;;;;;;;21.95;19.20;;;24.30;1.00;;;;;;5062920;28;20343;-75
2021/06/08 12:06:00;;;;;;;20.05;18.25;;;24.50;1.00;;;;;;5062486;28;20102;-75
2021/06/08 12:08:26;;;;;;;21.55;18.23;;;24.70;1.00;;;;;;5072173;28;20032;-75
2021/06/08 12:10:53;;;;;;;19.15;17.23;;;25.20;99.90;;;;;;5070580;28;20021;-76
2021/06/08 12:13:32;;;;;;;20.67;18.88;;;25.10;99.90;;;;;;5073774;28;20025;-77
2021/06/08 12:15:59;;;;;;;21.58;19.52;;;24.20;1.00;;;;;;5087137;28;20024;-75
2021/06/08 12:18:35;;;;;;;20.38;18.58;;;23.70;99.30;;;;;;5087003;28;20032;-77
2021/06/08 12:21:10;;;;;;;19.88;18.00;;;23.50;99.90;;;;;;5083878;28;20067;-74
2021/06/08 12:23:38;;;;;;;19.38;17.75;;;24.10;99.90;;;;;;5082830;28;20453;-74
2021/06/08 12:26:11;;;;;;;20.02;18.33;;;24.50;1.00;;;;;;5079801;28;20032;-76
2021/06/08 12:28:37;;;;;;;20.52;18.63;;;24.70;99.90;;;;;;5076719;28;20028;-74
2021/06/08 12:31:14;;;;;;;19.77;17.98;;;24.60;99.90;;;;;;5076133;28;20098;-75
2021/06/08 12:33:40;;;;;;;18.88;17.17;;;25.00;99.90;;;;;;5076668;28;20086;-75
2021/06/08 12:36:07;;;;;;;17.95;16.45;;;25.50;1.00;;;;;;5075331;28;20028;-76
2021/06/08 12:38:32;;;;;;;18.80;16.85;;;24.80;99.90;;;;;;5075910;28;20016;-75
2021/06/08 12:41:08;;;;;;;17.90;16.15;;;25.10;1.00;;;;;;5076409;28;20040;-76
2021/06/08 12:44:00;;;;;;;16.67;15.15;;;25.50;99.90;;;;;;5075067;28;20519;-77
2021/06/08 12:46:29;;;;;;;17.58;15.85;;;26.40;99.90;;;;;;5071544;28;20048;-76
2021/06/08 12:49:22;;;;;;;15.98;14.60;;;26.00;1.00;;;;;;5075781;28;20012;-76
2021/06/08 12:51:53;;;;;;;15.65;14.45;;;25.70;69.70;;;;;;5073425;28;20065;-76